createdAt,value
2023-03-30T00:01:19.981Z,98516.72
2023-03-30T00:03:48.315Z,98510.06
2023-03-30T00:06:23.352Z,98514.84
2023-03-30T00:08:53.743Z,98516.13
2023-03-30T00:11:23.512Z,98508.66
2023-03-30T00:13:51.376Z,98515.13
2023-03-30T00:16:19.284Z,98514.44
2023-03-30T00:18:47.492Z,98515.19
2023-03-30T00:21:18.484Z,98516.78
2023-03-30T00:23:48.997Z,98511.72
2023-03-30T00:26:17.620Z,98518.28
2023-03-30T00:28:45.088Z,98513.22
2023-03-30T00:31:13.129Z,98514.81
2023-03-30T00:33:45.711Z,98508.94
2023-03-30T00:36:14.940Z,98506.78
2023-03-30T00:38:42.178Z,98505.75
2023-03-30T00:41:09.960Z,98504.31
2023-03-30T00:44:00.166Z,98513.16
2023-03-30T00:46:28.116Z,98507.81
2023-03-30T00:48:58.942Z,98508.75
2023-03-30T00:51:28.312Z,98507.78
2023-03-30T00:54:01.794Z,98511.19
2023-03-30T00:56:30.894Z,98501.00
2023-03-30T00:58:58.692Z,98507.72
2023-03-30T01:01:29.230Z,98502.09
2023-03-30T01:04:02.445Z,98509.56
2023-03-30T01:06:32.296Z,98508.53
2023-03-30T01:08:59.423Z,98496.59
2023-03-30T01:11:29.481Z,98505.88
2023-03-30T01:14:00.444Z,98511.31
2023-03-30T01:16:44.350Z,98513.25
2023-03-30T01:19:44.000Z,98507.41
2023-03-30T01:22:14.973Z,98511.53
2023-03-30T01:25:15.388Z,98507.66
2023-03-30T01:28:27.363Z,98505.81
2023-03-30T01:31:32.042Z,98501.53
2023-03-30T01:34:11.757Z,98507.28
2023-03-30T01:37:25.327Z,98508.03
2023-03-30T01:40:02.300Z,98516.78
2023-03-30T01:42:41.435Z,98523.09
2023-03-30T01:45:31.920Z,98517.19
2023-03-30T01:48:11.058Z,98517.81
2023-03-30T01:50:45.275Z,98519.13
2023-03-30T01:53:23.605Z,98518.91
2023-03-30T01:56:01.367Z,98520.97
2023-03-30T01:58:40.113Z,98522.00
2023-03-30T02:01:08.841Z,98511.84
2023-03-30T02:03:40.307Z,98521.22
2023-03-30T02:06:30.825Z,98521.53
2023-03-30T02:09:00.469Z,98508.03
2023-03-30T02:11:31.431Z,98513.00
2023-03-30T02:14:00.359Z,98517.44
2023-03-30T02:16:47.108Z,98523.72
2023-03-30T02:19:15.754Z,98523.00
2023-03-30T02:21:44.083Z,98535.22
2023-03-30T02:24:18.944Z,98530.72
2023-03-30T02:26:50.661Z,98523.31
2023-03-30T02:29:19.382Z,98532.25
2023-03-30T02:31:50.041Z,98526.13
2023-03-30T02:34:28.754Z,98520.38
2023-03-30T02:37:10.152Z,98527.56
2023-03-30T02:40:14.028Z,98531.13
2023-03-30T02:43:16.698Z,98532.09
2023-03-30T02:45:52.964Z,98539.28
2023-03-30T02:48:35.742Z,98529.63
2023-03-30T02:51:33.500Z,98531.56
2023-03-30T02:54:30.181Z,98531.03
2023-03-30T02:57:41.363Z,98519.03
2023-03-30T03:00:43.516Z,98534.78
2023-03-30T03:03:24.095Z,98531.50
2023-03-30T03:05:54.400Z,98533.09
2023-03-30T03:08:30.450Z,98525.78
2023-03-30T03:10:57.836Z,98533.16
2023-03-30T03:13:28.075Z,98538.72
2023-03-30T03:15:57.084Z,98537.47
2023-03-30T03:18:26.795Z,98540.50
2023-03-30T03:20:53.958Z,98543.66
2023-03-30T03:23:23.847Z,98544.22
2023-03-30T03:25:54.205Z,98542.81
2023-03-30T03:28:22.529Z,98550.03
2023-03-30T03:30:58.510Z,98560.47
2023-03-30T03:33:27.541Z,98555.03
2023-03-30T03:36:17.516Z,98553.19
2023-03-30T03:38:49.094Z,98564.84
2023-03-30T03:41:16.973Z,98558.41
2023-03-30T03:43:44.749Z,98560.09
2023-03-30T03:46:12.890Z,98568.28
2023-03-30T03:48:40.868Z,98563.09
2023-03-30T03:51:09.544Z,98559.81
2023-03-30T03:53:36.977Z,98561.38
2023-03-30T03:56:08.274Z,98567.28
2023-03-30T03:58:36.326Z,98564.47
2023-03-30T04:01:03.920Z,98563.34
2023-03-30T04:03:31.800Z,98566.66
2023-03-30T04:06:00.781Z,98565.91
2023-03-30T04:08:29.012Z,98568.66
2023-03-30T04:11:11.927Z,98574.03
2023-03-30T04:14:05.025Z,98566.38
2023-03-30T04:16:44.041Z,98577.63
2023-03-30T04:19:27.763Z,98568.00
2023-03-30T04:22:13.917Z,98567.88
2023-03-30T04:25:15.176Z,98568.59
2023-03-30T04:28:05.428Z,98573.19
2023-03-30T04:31:02.212Z,98573.59
2023-03-30T04:36:35.928Z,98580.09
2023-03-30T04:39:22.258Z,98579.50
2023-03-30T04:41:57.647Z,98588.66
2023-03-30T04:44:36.081Z,98592.31
2023-03-30T04:47:24.703Z,98594.28
2023-03-30T04:49:54.847Z,98598.59
2023-03-30T04:52:40.168Z,98594.44
2023-03-30T04:55:30.763Z,98598.97
2023-03-30T04:57:57.934Z,98599.38
2023-03-30T05:00:42.626Z,98593.91
2023-03-30T05:03:44.459Z,98599.56
2023-03-30T05:06:29.787Z,98595.66
2023-03-30T05:09:17.286Z,98594.94
2023-03-30T05:12:04.941Z,98588.66
2023-03-30T05:14:52.294Z,98593.81
2023-03-30T05:17:28.427Z,98582.88
2023-03-30T05:20:15.789Z,98587.66
2023-03-30T05:23:01.385Z,98590.03
2023-03-30T05:25:52.207Z,98583.19
2023-03-30T05:28:39.339Z,98586.56
2023-03-30T05:31:23.128Z,98588.09
2023-03-30T05:34:17.345Z,98596.31
2023-03-30T05:36:50.832Z,98588.59
2023-03-30T05:39:29.864Z,98585.09
2023-03-30T05:42:15.496Z,98583.69
2023-03-30T05:44:54.017Z,98594.81
2023-03-30T05:47:39.746Z,98597.72
2023-03-30T05:50:14.313Z,98608.72
2023-03-30T05:52:52.649Z,98595.03
2023-03-30T05:55:25.954Z,98594.81
2023-03-30T05:58:08.452Z,98590.63
2023-03-30T06:00:54.318Z,98595.00
2023-03-30T06:03:32.304Z,98589.38
2023-03-30T06:05:59.547Z,98596.53
2023-03-30T06:08:29.846Z,98605.19
2023-03-30T06:11:01.999Z,98606.03
2023-03-30T06:13:37.329Z,98609.56
2023-03-30T06:16:04.744Z,98612.25
2023-03-30T06:18:32.040Z,98613.81
2023-03-30T06:21:08.517Z,98612.47
2023-03-30T06:23:56.027Z,98619.78
2023-03-30T06:26:28.105Z,98616.66
2023-03-30T06:28:55.288Z,98616.66
2023-03-30T06:31:22.582Z,98618.72
2023-03-30T06:33:57.438Z,98628.78
2023-03-30T06:36:44.934Z,98624.97
2023-03-30T06:39:11.894Z,98621.69
2023-03-30T06:41:39.436Z,98623.22
2023-03-30T06:44:19.930Z,98620.19
2023-03-30T06:46:48.087Z,98618.63
2023-03-30T06:49:15.733Z,98623.75
2023-03-30T06:51:43.228Z,98622.09
2023-03-30T06:54:11.358Z,98616.09
2023-03-30T06:56:43.317Z,98624.56
2023-03-30T06:59:14.336Z,98625.88
2023-03-30T07:02:16.749Z,98618.91
2023-03-30T07:05:02.633Z,98611.03
2023-03-30T07:07:47.975Z,98613.03
2023-03-30T07:10:15.326Z,98630.72
2023-03-30T07:12:43.590Z,98631.66
2023-03-30T07:15:11.739Z,98630.13
2023-03-30T07:17:40.104Z,98627.69
2023-03-30T07:20:08.975Z,98636.41
2023-03-30T07:22:49.421Z,98635.81
2023-03-30T07:25:17.023Z,98634.75
2023-03-30T07:27:44.625Z,98633.47
2023-03-30T07:30:21.394Z,98627.59
2023-03-30T07:32:53.459Z,98631.47
2023-03-30T07:35:22.810Z,98627.00
2023-03-30T07:37:51.246Z,98633.81
2023-03-30T07:40:19.925Z,98629.56
2023-03-30T07:42:48.235Z,98633.34
2023-03-30T07:45:16.704Z,98615.00
2023-03-30T07:47:45.962Z,98624.50
2023-03-30T07:50:13.338Z,98632.06
2023-03-30T07:52:40.627Z,98634.06
2023-03-30T07:55:10.358Z,98625.84
2023-03-30T07:57:42.524Z,98619.28
2023-03-30T08:00:10.632Z,98624.50
2023-03-30T08:02:57.114Z,98626.81
2023-03-30T08:05:25.113Z,98631.56
2023-03-30T08:08:04.737Z,98622.50
2023-03-30T08:10:35.300Z,98629.19
2023-03-30T08:13:02.712Z,98622.59
2023-03-30T08:15:29.876Z,98621.94
2023-03-30T08:17:57.672Z,98617.00
2023-03-30T08:20:25.021Z,98635.34
2023-03-30T08:22:52.281Z,98620.84
2023-03-30T08:25:19.386Z,98620.38
2023-03-30T08:27:46.550Z,98626.41
2023-03-30T08:30:16.007Z,98625.63
2023-03-30T08:32:43.122Z,98630.50
2023-03-30T08:35:10.249Z,98624.00
2023-03-30T08:37:37.471Z,98605.56
2023-03-30T08:40:08.127Z,98603.34
2023-03-30T08:42:35.246Z,98605.09
2023-03-30T08:45:05.683Z,98601.84
2023-03-30T08:47:36.630Z,98594.97
2023-03-30T08:50:16.577Z,98591.94
2023-03-30T08:52:43.895Z,98592.88
2023-03-30T08:55:33.394Z,98594.06
2023-03-30T08:58:40.301Z,98593.66
2023-03-30T09:01:20.861Z,98583.06
2023-03-30T09:04:06.733Z,98572.53
2023-03-30T09:07:18.443Z,98591.91
2023-03-30T09:09:49.484Z,98585.84
2023-03-30T09:12:34.250Z,98582.66
2023-03-30T09:15:22.863Z,98573.63
2023-03-30T09:18:19.941Z,98575.97
2023-03-30T09:20:48.680Z,98576.38
2023-03-30T09:23:17.804Z,98575.63
2023-03-30T09:25:55.049Z,98569.94
2023-03-30T09:28:36.769Z,98568.69
2023-03-30T09:31:11.023Z,98566.47
2023-03-30T09:33:56.266Z,98564.75
2023-03-30T09:36:52.307Z,98563.53
2023-03-30T09:39:21.549Z,98569.69
2023-03-30T09:41:57.229Z,98570.53
2023-03-30T10:17:08.022Z,98544.06
2023-03-30T10:19:38.369Z,98542.66
2023-03-30T10:22:17.564Z,98547.03
2023-03-30T10:24:53.426Z,98542.56
2023-03-30T10:27:25.867Z,98533.34
2023-03-30T10:29:52.884Z,98535.53
2023-03-30T10:32:27.319Z,98539.50
2023-03-30T10:34:57.601Z,98532.94
2023-03-30T10:37:38.981Z,98531.31
2023-03-30T10:40:21.236Z,98520.75
2023-03-30T10:42:52.678Z,98534.03
2023-03-30T10:45:47.834Z,98521.22
2023-03-30T10:48:39.173Z,98521.13
2023-03-30T10:51:12.280Z,98525.72
2023-03-30T10:53:48.295Z,98519.47
2023-03-30T10:56:40.054Z,98508.97
2023-03-30T10:59:44.212Z,98509.44
2023-03-30T11:02:46.619Z,98506.34
2023-03-30T11:05:22.924Z,98499.41
2023-03-30T11:07:56.200Z,98513.53
2023-03-30T11:10:36.911Z,98510.91
2023-03-30T11:13:15.183Z,98494.34
2023-03-30T11:15:55.631Z,98506.28
2023-03-30T11:18:29.180Z,98504.28
2023-03-30T11:21:06.209Z,98498.41
2023-03-30T11:23:55.293Z,98494.22
2023-03-30T11:26:59.433Z,98483.19
2023-03-30T11:29:50.800Z,98480.59
2023-03-30T11:32:36.603Z,98480.19
2023-03-30T11:35:24.734Z,98476.31
2023-03-30T11:38:02.844Z,98476.44
2023-03-30T11:40:51.830Z,98485.44
2023-03-30T11:43:22.851Z,98470.41
2023-03-30T11:45:58.194Z,98478.59
2023-03-30T11:49:04.337Z,98464.19
2023-03-30T11:52:04.699Z,98472.19
2023-03-30T11:55:01.705Z,98467.78
2023-03-30T11:57:48.262Z,98454.94
2023-03-30T12:00:54.818Z,98461.34
2023-03-30T12:03:42.805Z,98452.44
2023-03-30T12:06:31.343Z,98457.44
2023-03-30T12:09:23.487Z,98448.84
2023-03-30T12:12:03.455Z,98457.31
2023-03-30T12:14:34.218Z,98445.03
2023-03-30T12:17:42.939Z,98446.28
2023-03-30T12:20:10.130Z,98448.59
2023-03-30T12:22:46.416Z,98444.69
2023-03-30T12:25:33.186Z,98448.31
2023-03-30T12:28:04.548Z,98446.44
2023-03-30T12:30:46.200Z,98446.84
2023-03-30T12:33:44.134Z,98450.06
2023-03-30T12:36:34.185Z,98449.47
2023-03-30T12:39:02.863Z,98447.31
2023-03-30T12:41:41.862Z,98441.25
2023-03-30T12:44:35.386Z,98434.56
2023-03-30T12:47:46.433Z,98428.47
2023-03-30T12:50:25.246Z,98431.06
2023-03-30T12:53:09.509Z,98431.47
2023-03-30T12:55:39.339Z,98418.25
2023-03-30T12:58:42.933Z,98422.84
2023-03-30T13:01:25.056Z,98425.16
2023-03-30T13:03:55.219Z,98419.72
2023-03-30T13:06:27.274Z,98410.81
2023-03-30T13:08:57.457Z,98412.81
2023-03-30T13:11:24.717Z,98414.00
2023-03-30T13:13:57.941Z,98409.22
2023-03-30T13:16:53.260Z,98401.88
2023-03-30T13:19:28.469Z,98404.72
2023-03-30T13:22:17.182Z,98406.88
2023-03-30T13:24:47.035Z,98407.47
2023-03-30T13:27:14.043Z,98412.13
2023-03-30T13:29:42.537Z,98402.34
2023-03-30T13:32:20.677Z,98396.16
2023-03-30T13:35:05.347Z,98391.53
2023-03-30T13:37:45.034Z,98389.97
2023-03-30T13:40:38.676Z,98390.59
2023-03-30T13:43:15.993Z,98382.38
2023-03-30T13:46:13.160Z,98382.38
2023-03-30T13:48:55.712Z,98384.16
2023-03-30T13:51:27.444Z,98380.25
2023-03-30T13:54:01.892Z,98373.56
2023-03-30T13:56:41.414Z,98364.16
2023-03-30T13:59:18.168Z,98360.84
2023-03-30T14:01:54.521Z,98368.34
2023-03-30T14:04:22.252Z,98368.94
2023-03-30T14:06:51.547Z,98362.03
2023-03-30T14:09:24.867Z,98359.41
2023-03-30T14:12:06.107Z,98356.41
2023-03-30T14:14:39.261Z,98349.28
2023-03-30T14:17:22.515Z,98343.81
2023-03-30T14:20:19.920Z,98345.44
2023-03-30T14:22:49.047Z,98341.19
2023-03-30T14:25:29.732Z,98357.00
2023-03-30T14:28:01.944Z,98341.91
2023-03-30T14:30:29.930Z,98339.50
2023-03-30T14:33:12.390Z,98345.72
2023-03-30T14:35:46.345Z,98330.28
2023-03-30T14:38:22.706Z,98336.63
2023-03-30T14:40:51.409Z,98345.94
2023-03-30T14:43:29.068Z,98343.59
2023-03-30T14:45:59.013Z,98342.63
2023-03-30T14:48:33.166Z,98344.63
2023-03-30T14:51:09.697Z,98337.84
2023-03-30T14:53:37.095Z,98339.50
2023-03-30T14:56:05.158Z,98332.41
2023-03-30T14:58:33.862Z,98333.13
2023-03-30T15:01:16.749Z,98336.22
2023-03-30T15:03:45.195Z,98332.88
2023-03-30T15:06:16.671Z,98329.50
2023-03-30T15:08:46.763Z,98330.97
2023-03-30T15:11:26.542Z,98322.16
2023-03-30T15:14:03.096Z,98331.41
2023-03-30T15:16:33.283Z,98328.72
2023-03-30T15:19:11.096Z,98325.25
2023-03-30T15:21:39.133Z,98320.72
2023-03-30T15:24:09.258Z,98319.66
2023-03-30T15:26:44.246Z,98318.25
2023-03-30T15:29:12.384Z,98323.72
2023-03-30T15:31:39.488Z,98313.38
2023-03-30T15:34:14.182Z,98312.78
2023-03-30T15:36:41.670Z,98316.69
2023-03-30T15:39:48.164Z,98309.59
2023-03-30T15:42:25.709Z,98308.88
2023-03-30T15:45:10.175Z,98312.44
2023-03-30T15:47:37.770Z,98301.84
2023-03-30T15:50:05.493Z,98304.84
2023-03-30T15:52:35.714Z,98296.53
2023-03-30T15:55:09.076Z,98303.91
2023-03-30T15:57:40.567Z,98302.47
2023-03-30T16:00:15.504Z,98309.84
2023-03-30T16:02:48.769Z,98309.13
2023-03-30T16:05:27.753Z,98308.53
2023-03-30T16:07:55.811Z,98305.34
2023-03-30T16:10:26.903Z,98301.38
2023-03-30T16:12:55.928Z,98307.06
2023-03-30T16:15:26.311Z,98311.03
2023-03-30T16:17:53.482Z,98308.19
2023-03-30T16:20:30.861Z,98306.75
2023-03-30T16:22:58.514Z,98305.78
2023-03-30T16:25:34.514Z,98305.91
2023-03-30T16:28:16.789Z,98303.53
2023-03-30T16:30:46.473Z,98314.00
2023-03-30T16:33:13.919Z,98306.72
2023-03-30T16:35:41.234Z,98305.41
2023-03-30T16:38:13.708Z,98314.78
2023-03-30T16:40:43.646Z,98317.50
2023-03-30T16:43:10.933Z,98319.19
2023-03-30T16:45:38.603Z,98322.47
2023-03-30T16:48:06.098Z,98311.72
2023-03-30T16:50:45.437Z,98316.53
2023-03-30T16:53:13.245Z,98314.97
2023-03-30T16:55:40.936Z,98320.19
2023-03-30T16:58:09.682Z,98321.09
2023-03-30T17:00:41.064Z,98323.44
2023-03-30T17:03:09.142Z,98321.25
2023-03-30T17:05:36.581Z,98312.94
2023-03-30T17:08:06.404Z,98317.94
2023-03-30T17:10:37.174Z,98317.38
2023-03-30T17:13:04.711Z,98312.28
2023-03-30T17:15:31.883Z,98317.50
2023-03-30T17:17:59.019Z,98317.25
2023-03-30T17:20:38.783Z,98314.25
2023-03-30T17:23:08.534Z,98311.88
2023-03-30T17:25:37.460Z,98309.91
2023-03-30T17:28:13.100Z,98313.09
2023-03-30T17:30:43.034Z,98310.13
2023-03-30T17:33:12.905Z,98314.16
2023-03-30T17:35:41.037Z,98318.44
2023-03-30T17:38:09.443Z,98320.31
2023-03-30T17:40:38.976Z,98332.13
2023-03-30T17:43:07.495Z,98324.22
2023-03-30T17:45:35.731Z,98323.59
2023-03-30T17:48:05.311Z,98322.94
2023-03-30T17:50:37.813Z,98314.00
2023-03-30T17:53:05.962Z,98319.53
2023-03-30T17:55:33.870Z,98324.97
2023-03-30T17:58:00.956Z,98325.38
2023-03-30T18:00:29.718Z,98322.03
2023-03-30T18:02:57.614Z,98327.25
2023-03-30T18:05:27.844Z,98326.94
2023-03-30T18:07:55.410Z,98320.78
2023-03-30T18:10:22.504Z,98319.31
2023-03-30T18:12:50.471Z,98321.22
2023-03-30T18:15:20.409Z,98318.50
2023-03-30T18:17:48.052Z,98315.59
2023-03-30T18:20:25.966Z,98317.25
2023-03-30T18:22:53.162Z,98310.78
2023-03-30T18:25:31.615Z,98306.41
2023-03-30T18:28:01.318Z,98303.50
2023-03-30T18:30:32.616Z,98304.22
2023-03-30T18:33:00.382Z,98309.44
2023-03-30T18:35:29.956Z,98311.09
2023-03-30T18:37:58.235Z,98310.97
2023-03-30T18:40:32.513Z,98299.13
2023-03-30T18:43:00.565Z,98301.63
2023-03-30T18:45:34.221Z,98301.81
2023-03-30T18:48:02.593Z,98287.75
2023-03-30T18:50:41.621Z,98286.66
2023-03-30T18:53:11.582Z,98278.13
2023-03-30T18:55:41.203Z,98280.88
2023-03-30T18:58:18.666Z,98274.50
2023-03-30T19:00:45.811Z,98273.22
2023-03-30T19:03:14.435Z,98273.47
2023-03-30T19:05:42.912Z,98277.22
2023-03-30T19:08:12.867Z,98269.81
2023-03-30T19:10:42.640Z,98259.53
2023-03-30T19:13:14.244Z,98255.16
2023-03-30T19:15:41.565Z,98264.56
2023-03-30T19:18:09.003Z,98247.03
2023-03-30T19:20:39.919Z,98245.88
2023-03-30T19:23:17.063Z,98243.69
2023-03-30T19:25:45.021Z,98235.97
2023-03-30T19:28:12.994Z,98229.09
2023-03-30T19:30:40.526Z,98232.94
2023-03-30T19:33:12.212Z,98238.69
2023-03-30T19:35:41.110Z,98238.47
2023-03-30T19:38:08.969Z,98240.56
2023-03-30T19:40:38.551Z,98249.72
2023-03-30T19:43:07.141Z,98238.66
2023-03-30T19:45:34.240Z,98247.75
2023-03-30T19:48:01.537Z,98252.03
2023-03-30T19:50:30.189Z,98254.75
2023-03-30T19:52:58.847Z,98242.66
2023-03-30T19:55:26.427Z,98233.38
2023-03-30T19:57:53.556Z,98233.25
2023-03-30T20:00:22.831Z,98234.72
2023-03-30T20:02:52.211Z,98243.13
2023-03-30T20:05:21.162Z,98234.47
2023-03-30T20:07:48.759Z,98238.09
2023-03-30T20:10:19.639Z,98231.16
2023-03-30T20:12:47.623Z,98226.56
2023-03-30T20:15:14.928Z,98222.41
2023-03-30T20:17:42.791Z,98223.53
2023-03-30T20:20:12.877Z,98225.09
2023-03-30T20:22:42.703Z,98211.88
2023-03-30T20:25:12.641Z,98219.81
2023-03-30T20:27:40.457Z,98217.38
2023-03-30T20:30:08.686Z,98212.13
2023-03-30T20:32:35.929Z,98207.50
2023-03-30T20:35:03.405Z,98217.47
2023-03-30T20:37:30.476Z,98196.78
2023-03-30T20:40:05.285Z,98191.22
2023-03-30T20:42:32.702Z,98195.66
2023-03-30T20:45:01.321Z,98187.34
2023-03-30T20:47:31.073Z,98195.69
2023-03-30T20:49:59.614Z,98189.47
2023-03-30T20:52:27.862Z,98180.84
2023-03-30T20:54:56.438Z,98187.56
2023-03-30T20:57:24.453Z,98187.25
2023-03-30T20:59:54.290Z,98189.28
2023-03-30T21:02:21.586Z,98181.19
2023-03-30T21:04:50.461Z,98175.78
2023-03-30T21:07:18.218Z,98166.31
2023-03-30T21:09:45.980Z,98165.34
2023-03-30T21:12:13.145Z,98162.13
2023-03-30T21:14:40.181Z,98165.78
2023-03-30T21:17:07.588Z,98155.03
2023-03-30T21:19:34.997Z,98149.06
2023-03-30T21:22:02.120Z,98146.34
2023-03-30T21:24:30.989Z,98147.47
2023-03-30T21:26:58.060Z,98147.28
2023-03-30T21:29:25.248Z,98137.84
2023-03-30T21:31:52.465Z,98149.66
2023-03-30T21:34:20.358Z,98145.50
2023-03-30T21:36:47.446Z,98142.81
2023-03-30T21:39:14.599Z,98142.25
2023-03-30T21:41:41.821Z,98146.66
2023-03-30T21:44:08.925Z,98148.31
2023-03-30T21:46:36.035Z,98143.22
2023-03-30T21:49:03.241Z,98136.31
2023-03-30T21:51:31.680Z,98131.66
2023-03-30T21:53:59.430Z,98124.06
2023-03-30T21:56:29.434Z,98119.88
2023-03-30T21:58:57.156Z,98127.31
2023-03-30T22:01:24.618Z,98114.88
2023-03-30T22:03:52.907Z,98116.53
2023-03-30T22:06:20.614Z,98106.78
2023-03-30T22:08:48.000Z,98104.81
2023-03-30T22:11:18.012Z,98100.75
2023-03-30T22:13:47.507Z,98110.00
2023-03-30T22:16:24.535Z,98119.59
2023-03-30T22:18:52.516Z,98125.41
2023-03-30T22:21:22.064Z,98123.03
2023-03-30T22:23:49.080Z,98120.19
2023-03-30T22:26:16.501Z,98114.97
2023-03-30T22:28:44.352Z,98111.66
2023-03-30T22:31:14.176Z,98109.97
2023-03-30T22:33:41.707Z,98107.69
2023-03-30T22:36:20.622Z,98100.69
2023-03-30T22:38:49.258Z,98100.78
2023-03-30T22:41:16.847Z,98096.72
2023-03-30T22:43:43.967Z,98099.84
2023-03-30T22:46:11.968Z,98089.09
2023-03-30T22:48:41.663Z,98088.22
2023-03-30T22:51:14.321Z,98089.88
2023-03-30T22:53:41.639Z,98082.78
2023-03-30T22:56:08.728Z,98080.28
2023-03-30T22:58:36.483Z,98072.91
2023-03-30T23:01:07.147Z,98064.41
2023-03-30T23:03:34.450Z,98058.91
2023-03-30T23:06:01.937Z,98052.78
2023-03-30T23:08:30.197Z,98046.31
2023-03-30T23:11:04.060Z,98048.22
2023-03-30T23:13:33.599Z,98034.03
2023-03-30T23:16:01.591Z,98035.22
2023-03-30T23:18:28.719Z,98023.25
2023-03-30T23:20:58.045Z,98022.63
2023-03-30T23:23:25.371Z,98022.72
2023-03-30T23:25:52.792Z,98024.09
2023-03-30T23:28:19.864Z,98019.09
2023-03-30T23:30:46.983Z,98012.22
2023-03-30T23:33:14.379Z,98018.34
2023-03-30T23:35:49.131Z,98012.00
2023-03-30T23:38:17.234Z,98005.13
2023-03-30T23:40:44.362Z,98001.78
2023-03-30T23:43:11.735Z,98002.72
2023-03-30T23:45:38.901Z,97991.59
2023-03-30T23:48:06.223Z,98001.34
2023-03-30T23:50:36.805Z,98001.47
2023-03-30T23:53:03.880Z,97994.44
2023-03-30T23:55:31.191Z,97995.25
2023-03-30T23:57:58.266Z,97987.94
